sensor_id;sensor_type;location;lat;lon;timestamp;temperature;humidity
33994;DHT22;20673;48.980;8.138;2023-03-25T00:02:08;9.80;99.90
33994;DHT22;20673;48.980;8.138;2023-03-25T00:04:33;9.80;99.90
33994;DHT22;20673;48.980;8.138;2023-03-25T00:06:59;9.80;99.90
33994;DHT22;20673;48.980;8.138;2023-03-25T00:09:25;9.70;99.90
33994;DHT22;20673;48.980;8.138;2023-03-25T00:11:51;9.70;99.90
33994;DHT22;20673;48.980;8.138;2023-03-25T00:14:17;9.60;99.90
33994;DHT22;20673;48.980;8.138;2023-03-25T00:16:43;9.60;99.90
33994;DHT22;20673;48.980;8.138;2023-03-25T00:19:11;9.60;99.90
33994;DHT22;20673;48.980;8.138;2023-03-25T00:21:38;9.50;99.90
33994;DHT22;20673;48.980;8.138;2023-03-25T00:24:04;9.50;99.90
33994;DHT22;20673;48.980;8.138;2023-03-25T00:26:30;9.50;99.90
33994;DHT22;20673;48.980;8.138;2023-03-25T00:28:56;9.60;99.90
33994;DHT22;20673;48.980;8.138;2023-03-25T00:31:22;9.60;99.90
33994;DHT22;20673;48.980;8.138;2023-03-25T00:33:47;9.60;99.90
33994;DHT22;20673;48.980;8.138;2023-03-25T00:36:15;9.60;99.90
33994;DHT22;20673;48.980;8.138;2023-03-25T00:38:42;9.60;99.90
33994;DHT22;20673;48.980;8.138;2023-03-25T00:41:17;9.70;99.90
33994;DHT22;20673;48.980;8.138;2023-03-25T00:43:45;9.70;99.90
33994;DHT22;20673;48.980;8.138;2023-03-25T00:46:10;9.70;99.90
33994;DHT22;20673;48.980;8.138;2023-03-25T00:48:36;9.60;99.90
33994;DHT22;20673;48.980;8.138;2023-03-25T00:51:02;9.70;99.90
33994;DHT22;20673;48.980;8.138;2023-03-25T00:53:30;9.70;99.90
33994;DHT22;20673;48.980;8.138;2023-03-25T00:55:56;9.70;99.90
33994;DHT22;20673;48.980;8.138;2023-03-25T00:58:22;9.70;99.90
33994;DHT22;20673;48.980;8.138;2023-03-25T01:00:48;9.60;99.90
33994;DHT22;20673;48.980;8.138;2023-03-25T01:03:14;9.60;99.90
33994;DHT22;20673;48.980;8.138;2023-03-25T01:05:39;9.70;99.90
33994;DHT22;20673;48.980;8.138;2023-03-25T01:08:06;9.70;99.90
33994;DHT22;20673;48.980;8.138;2023-03-25T01:10:33;9.70;99.90
33994;DHT22;20673;48.980;8.138;2023-03-25T01:12:59;9.70;99.90
33994;DHT22;20673;48.980;8.138;2023-03-25T01:15:25;9.80;99.90
33994;DHT22;20673;48.980;8.138;2023-03-25T01:17:50;9.80;99.90
33994;DHT22;20673;48.980;8.138;2023-03-25T01:20:16;9.70;99.90
33994;DHT22;20673;48.980;8.138;2023-03-25T01:22:42;9.60;99.90
33994;DHT22;20673;48.980;8.138;2023-03-25T01:25:08;9.50;99.90
33994;DHT22;20673;48.980;8.138;2023-03-25T01:27:33;9.30;99.90
33994;DHT22;20673;48.980;8.138;2023-03-25T01:29:59;9.00;99.90
33994;DHT22;20673;48.980;8.138;2023-03-25T01:32:25;8.80;99.90
33994;DHT22;20673;48.980;8.138;2023-03-25T01:34:50;8.80;99.90
33994;DHT22;20673;48.980;8.138;2023-03-25T01:37:16;8.70;99.90
33994;DHT22;20673;48.980;8.138;2023-03-25T01:39:42;8.70;99.90
33994;DHT22;20673;48.980;8.138;2023-03-25T01:42:09;8.60;99.90
33994;DHT22;20673;48.980;8.138;2023-03-25T01:47:06;8.50;99.90
33994;DHT22;20673;48.980;8.138;2023-03-25T01:49:37;8.50;99.90
33994;DHT22;20673;48.980;8.138;2023-03-25T01:52:09;8.40;99.90
33994;DHT22;20673;48.980;8.138;2023-03-25T01:54:35;8.50;99.90
33994;DHT22;20673;48.980;8.138;2023-03-25T01:57:03;8.40;99.90
33994;DHT22;20673;48.980;8.138;2023-03-25T01:59:29;8.30;99.90
33994;DHT22;20673;48.980;8.138;2023-03-25T02:01:56;8.40;99.90
33994;DHT22;20673;48.980;8.138;2023-03-25T02:05:05;8.30;99.90
33994;DHT22;20673;48.980;8.138;2023-03-25T02:06:55;8.30;99.90
33994;DHT22;20673;48.980;8.138;2023-03-25T02:09:23;8.30;99.90
33994;DHT22;20673;48.980;8.138;2023-03-25T02:11:50;8.30;99.90
33994;DHT22;20673;48.980;8.138;2023-03-25T02:14:19;8.30;99.90
33994;DHT22;20673;48.980;8.138;2023-03-25T02:16:48;8.20;99.90
33994;DHT22;20673;48.980;8.138;2023-03-25T02:19:34;8.20;99.90
33994;DHT22;20673;48.980;8.138;2023-03-25T02:40:21;8.10;99.90
33994;DHT22;20673;48.980;8.138;2023-03-25T02:42:52;8.00;99.90
33994;DHT22;20673;48.980;8.138;2023-03-25T02:47:48;8.10;99.90
33994;DHT22;20673;48.980;8.138;2023-03-25T02:50:19;8.10;99.90
33994;DHT22;20673;48.980;8.138;2023-03-25T02:52:46;8.10;99.90
33994;DHT22;20673;48.980;8.138;2023-03-25T02:55:13;8.10;99.90
33994;DHT22;20673;48.980;8.138;2023-03-25T02:57:40;8.10;99.90
33994;DHT22;20673;48.980;8.138;2023-03-25T03:00:07;8.10;99.90
33994;DHT22;20673;48.980;8.138;2023-03-25T03:02:38;8.20;99.90
33994;DHT22;20673;48.980;8.138;2023-03-25T03:05:18;8.10;99.90
33994;DHT22;20673;48.980;8.138;2023-03-25T03:07:32;8.10;99.90
33994;DHT22;20673;48.980;8.138;2023-03-25T03:10:08;8.10;99.90
33994;DHT22;20673;48.980;8.138;2023-03-25T03:12:44;8.10;99.90
33994;DHT22;20673;48.980;8.138;2023-03-25T03:23:08;8.30;99.90
33994;DHT22;20673;48.980;8.138;2023-03-25T03:25:34;8.40;99.90
33994;DHT22;20673;48.980;8.138;2023-03-25T03:30:28;8.60;99.90
33994;DHT22;20673;48.980;8.138;2023-03-25T03:35:32;8.60;99.90
33994;DHT22;20673;48.980;8.138;2023-03-25T03:37:59;8.60;99.90
33994;DHT22;20673;48.980;8.138;2023-03-25T03:40:26;8.60;99.90
33994;DHT22;20673;48.980;8.138;2023-03-25T03:42:57;8.60;99.90
33994;DHT22;20673;48.980;8.138;2023-03-25T03:45:28;8.60;99.90
33994;DHT22;20673;48.980;8.138;2023-03-25T03:47:52;8.50;99.90
33994;DHT22;20673;48.980;8.138;2023-03-25T03:50:19;8.50;99.90
33994;DHT22;20673;48.980;8.138;2023-03-25T03:52:49;8.50;99.90
33994;DHT22;20673;48.980;8.138;2023-03-25T03:55:15;8.50;99.90
33994;DHT22;20673;48.980;8.138;2023-03-25T03:57:46;8.40;99.90
33994;DHT22;20673;48.980;8.138;2023-03-25T04:00:16;8.40;99.90
33994;DHT22;20673;48.980;8.138;2023-03-25T04:02:44;8.40;99.90
33994;DHT22;20673;48.980;8.138;2023-03-25T04:05:12;8.40;99.90
33994;DHT22;20673;48.980;8.138;2023-03-25T04:07:42;8.40;99.90
33994;DHT22;20673;48.980;8.138;2023-03-25T04:10:09;8.40;99.90
33994;DHT22;20673;48.980;8.138;2023-03-25T04:12:37;8.50;99.90
33994;DHT22;20673;48.980;8.138;2023-03-25T04:15:05;8.50;99.90
33994;DHT22;20673;48.980;8.138;2023-03-25T04:17:31;8.50;99.90
33994;DHT22;20673;48.980;8.138;2023-03-25T04:20:00;8.50;99.90
33994;DHT22;20673;48.980;8.138;2023-03-25T04:22:27;8.60;99.90
33994;DHT22;20673;48.980;8.138;2023-03-25T04:24:53;8.60;99.90
33994;DHT22;20673;48.980;8.138;2023-03-25T04:27:20;8.60;99.90
33994;DHT22;20673;48.980;8.138;2023-03-25T04:29:48;8.50;99.90
33994;DHT22;20673;48.980;8.138;2023-03-25T04:32:16;8.50;99.90
33994;DHT22;20673;48.980;8.138;2023-03-25T04:34:42;8.50;99.90
33994;DHT22;20673;48.980;8.138;2023-03-25T04:37:07;8.60;99.90
33994;DHT22;20673;48.980;8.138;2023-03-25T04:39:33;8.60;99.90
33994;DHT22;20673;48.980;8.138;2023-03-25T04:41:59;8.70;99.90
33994;DHT22;20673;48.980;8.138;2023-03-25T04:44:26;8.70;99.90
33994;DHT22;20673;48.980;8.138;2023-03-25T04:46:53;8.70;99.90
33994;DHT22;20673;48.980;8.138;2023-03-25T04:49:20;8.70;99.90
33994;DHT22;20673;48.980;8.138;2023-03-25T04:51:47;8.80;99.90
33994;DHT22;20673;48.980;8.138;2023-03-25T04:54:14;8.80;99.90
33994;DHT22;20673;48.980;8.138;2023-03-25T04:56:40;8.80;99.90
33994;DHT22;20673;48.980;8.138;2023-03-25T04:59:06;8.90;99.90
33994;DHT22;20673;48.980;8.138;2023-03-25T05:01:33;9.00;99.90
33994;DHT22;20673;48.980;8.138;2023-03-25T05:04:03;9.00;99.90
33994;DHT22;20673;48.980;8.138;2023-03-25T05:06:30;9.10;99.90
33994;DHT22;20673;48.980;8.138;2023-03-25T05:08:57;9.10;99.90
33994;DHT22;20673;48.980;8.138;2023-03-25T05:11:24;9.20;99.90
33994;DHT22;20673;48.980;8.138;2023-03-25T05:13:49;9.20;99.90
33994;DHT22;20673;48.980;8.138;2023-03-25T05:16:15;9.20;99.90
33994;DHT22;20673;48.980;8.138;2023-03-25T05:18:41;9.20;99.90
33994;DHT22;20673;48.980;8.138;2023-03-25T05:21:06;9.10;99.90
33994;DHT22;20673;48.980;8.138;2023-03-25T05:23:32;9.10;99.90
33994;DHT22;20673;48.980;8.138;2023-03-25T05:25:59;9.10;99.90
33994;DHT22;20673;48.980;8.138;2023-03-25T05:28:25;9.10;99.90
33994;DHT22;20673;48.980;8.138;2023-03-25T05:30:50;9.10;99.90
33994;DHT22;20673;48.980;8.138;2023-03-25T05:33:16;9.10;99.90
33994;DHT22;20673;48.980;8.138;2023-03-25T05:35:43;9.10;99.90
33994;DHT22;20673;48.980;8.138;2023-03-25T05:38:09;9.10;99.90
33994;DHT22;20673;48.980;8.138;2023-03-25T05:40:40;9.10;99.90
33994;DHT22;20673;48.980;8.138;2023-03-25T05:43:06;9.10;99.90
33994;DHT22;20673;48.980;8.138;2023-03-25T05:45:32;9.10;99.90
33994;DHT22;20673;48.980;8.138;2023-03-25T05:47:59;9.20;99.90
33994;DHT22;20673;48.980;8.138;2023-03-25T05:50:25;9.20;99.90
33994;DHT22;20673;48.980;8.138;2023-03-25T05:52:53;9.20;99.90
33994;DHT22;20673;48.980;8.138;2023-03-25T05:55:20;9.20;99.90
33994;DHT22;20673;48.980;8.138;2023-03-25T05:57:46;9.20;99.90
33994;DHT22;20673;48.980;8.138;2023-03-25T06:00:12;9.10;99.90
33994;DHT22;20673;48.980;8.138;2023-03-25T06:02:40;9.10;99.90
33994;DHT22;20673;48.980;8.138;2023-03-25T06:05:07;9.10;99.90
33994;DHT22;20673;48.980;8.138;2023-03-25T06:07:35;9.20;99.90
33994;DHT22;20673;48.980;8.138;2023-03-25T06:10:02;9.20;99.90
33994;DHT22;20673;48.980;8.138;2023-03-25T06:12:29;9.30;99.90
33994;DHT22;20673;48.980;8.138;2023-03-25T06:14:56;9.30;99.90
33994;DHT22;20673;48.980;8.138;2023-03-25T06:17:22;9.40;99.90
33994;DHT22;20673;48.980;8.138;2023-03-25T06:19:48;9.40;99.90
33994;DHT22;20673;48.980;8.138;2023-03-25T06:22:15;9.50;99.90
33994;DHT22;20673;48.980;8.138;2023-03-25T06:24:41;9.50;99.90
33994;DHT22;20673;48.980;8.138;2023-03-25T06:27:13;9.50;99.90
33994;DHT22;20673;48.980;8.138;2023-03-25T06:29:40;9.50;99.90
33994;DHT22;20673;48.980;8.138;2023-03-25T06:32:08;9.50;99.90
33994;DHT22;20673;48.980;8.138;2023-03-25T06:34:34;9.50;99.90
33994;DHT22;20673;48.980;8.138;2023-03-25T06:37:00;9.50;99.90
33994;DHT22;20673;48.980;8.138;2023-03-25T06:39:26;9.50;99.90
33994;DHT22;20673;48.980;8.138;2023-03-25T06:41:54;9.40;99.90
33994;DHT22;20673;48.980;8.138;2023-03-25T06:44:20;9.50;99.90
33994;DHT22;20673;48.980;8.138;2023-03-25T06:46:45;9.50;99.90
33994;DHT22;20673;48.980;8.138;2023-03-25T06:49:11;9.50;99.90
33994;DHT22;20673;48.980;8.138;2023-03-25T06:51:37;9.50;99.90
33994;DHT22;20673;48.980;8.138;2023-03-25T06:54:02;9.50;99.90
33994;DHT22;20673;48.980;8.138;2023-03-25T06:56:28;9.50;99.90
33994;DHT22;20673;48.980;8.138;2023-03-25T06:58:54;9.40;99.90
33994;DHT22;20673;48.980;8.138;2023-03-25T07:01:20;9.50;99.90
33994;DHT22;20673;48.980;8.138;2023-03-25T07:03:45;9.50;99.90
33994;DHT22;20673;48.980;8.138;2023-03-25T07:06:19;9.60;99.90
33994;DHT22;20673;48.980;8.138;2023-03-25T07:08:45;9.70;99.90
33994;DHT22;20673;48.980;8.138;2023-03-25T07:11:12;9.90;99.90
33994;DHT22;20673;48.980;8.138;2023-03-25T07:13:38;10.00;99.90
33994;DHT22;20673;48.980;8.138;2023-03-25T07:16:04;10.00;99.90
33994;DHT22;20673;48.980;8.138;2023-03-25T07:18:30;9.90;99.90
33994;DHT22;20673;48.980;8.138;2023-03-25T07:20:56;9.90;99.90
33994;DHT22;20673;48.980;8.138;2023-03-25T07:23:21;9.70;99.90
33994;DHT22;20673;48.980;8.138;2023-03-25T07:25:47;9.70;99.90
33994;DHT22;20673;48.980;8.138;2023-03-25T07:28:13;9.60;99.90
33994;DHT22;20673;48.980;8.138;2023-03-25T07:30:39;9.60;99.90
33994;DHT22;20673;48.980;8.138;2023-03-25T07:33:05;9.50;99.90
33994;DHT22;20673;48.980;8.138;2023-03-25T07:35:30;9.60;99.90
33994;DHT22;20673;48.980;8.138;2023-03-25T07:37:56;9.80;99.90
33994;DHT22;20673;48.980;8.138;2023-03-25T07:40:22;9.90;99.90
33994;DHT22;20673;48.980;8.138;2023-03-25T07:42:48;10.10;99.90
33994;DHT22;20673;48.980;8.138;2023-03-25T07:45:13;10.10;99.90
33994;DHT22;20673;48.980;8.138;2023-03-25T07:47:40;10.10;99.90
33994;DHT22;20673;48.980;8.138;2023-03-25T07:50:06;10.10;99.90
33994;DHT22;20673;48.980;8.138;2023-03-25T07:52:31;10.20;99.90
33994;DHT22;20673;48.980;8.138;2023-03-25T07:54:57;10.20;99.90
33994;DHT22;20673;48.980;8.138;2023-03-25T07:57:25;10.40;99.90
33994;DHT22;20673;48.980;8.138;2023-03-25T07:59:51;10.40;99.90
33994;DHT22;20673;48.980;8.138;2023-03-25T08:02:16;10.30;99.90
33994;DHT22;20673;48.980;8.138;2023-03-25T08:04:42;10.10;99.90
33994;DHT22;20673;48.980;8.138;2023-03-25T08:07:08;10.00;99.90
33994;DHT22;20673;48.980;8.138;2023-03-25T08:09:34;9.90;99.90
33994;DHT22;20673;48.980;8.138;2023-03-25T08:12:00;9.60;99.90
33994;DHT22;20673;48.980;8.138;2023-03-25T08:14:25;9.40;99.90
33994;DHT22;20673;48.980;8.138;2023-03-25T08:16:51;9.40;99.90
33994;DHT22;20673;48.980;8.138;2023-03-25T08:19:17;9.50;99.90
33994;DHT22;20673;48.980;8.138;2023-03-25T08:21:43;9.70;99.90
33994;DHT22;20673;48.980;8.138;2023-03-25T08:24:08;9.80;99.90
33994;DHT22;20673;48.980;8.138;2023-03-25T08:26:35;9.70;99.90
33994;DHT22;20673;48.980;8.138;2023-03-25T08:29:01;9.70;99.90
33994;DHT22;20673;48.980;8.138;2023-03-25T08:31:29;9.60;99.90
33994;DHT22;20673;48.980;8.138;2023-03-25T08:33:57;9.60;99.90
33994;DHT22;20673;48.980;8.138;2023-03-25T08:36:23;9.80;99.90
33994;DHT22;20673;48.980;8.138;2023-03-25T08:38:49;10.00;99.90
33994;DHT22;20673;48.980;8.138;2023-03-25T08:41:15;10.20;99.90
33994;DHT22;20673;48.980;8.138;2023-03-25T08:43:41;10.20;99.90
33994;DHT22;20673;48.980;8.138;2023-03-25T08:46:06;10.20;99.90
33994;DHT22;20673;48.980;8.138;2023-03-25T08:48:32;10.20;99.90
33994;DHT22;20673;48.980;8.138;2023-03-25T08:50:58;10.20;99.90
33994;DHT22;20673;48.980;8.138;2023-03-25T08:53:24;10.10;99.90
33994;DHT22;20673;48.980;8.138;2023-03-25T08:55:54;9.90;99.90
33994;DHT22;20673;48.980;8.138;2023-03-25T08:58:19;9.90;99.90
33994;DHT22;20673;48.980;8.138;2023-03-25T09:00:46;9.80;99.90
33994;DHT22;20673;48.980;8.138;2023-03-25T09:03:12;9.80;99.90
33994;DHT22;20673;48.980;8.138;2023-03-25T09:05:38;9.80;99.90
33994;DHT22;20673;48.980;8.138;2023-03-25T09:08:04;9.80;99.90
33994;DHT22;20673;48.980;8.138;2023-03-25T09:10:30;9.70;99.90
33994;DHT22;20673;48.980;8.138;2023-03-25T09:12:56;9.60;99.90
33994;DHT22;20673;48.980;8.138;2023-03-25T09:15:21;9.50;99.90
33994;DHT22;20673;48.980;8.138;2023-03-25T09:17:47;9.40;99.90
33994;DHT22;20673;48.980;8.138;2023-03-25T09:20:13;9.40;99.90
33994;DHT22;20673;48.980;8.138;2023-03-25T09:22:39;9.40;99.90
33994;DHT22;20673;48.980;8.138;2023-03-25T09:25:05;9.40;99.90
33994;DHT22;20673;48.980;8.138;2023-03-25T09:27:32;9.50;99.90
33994;DHT22;20673;48.980;8.138;2023-03-25T09:29:58;9.50;99.90
33994;DHT22;20673;48.980;8.138;2023-03-25T09:32:23;9.60;99.90
33994;DHT22;20673;48.980;8.138;2023-03-25T09:34:50;9.60;99.90
33994;DHT22;20673;48.980;8.138;2023-03-25T09:37:16;9.70;99.90
33994;DHT22;20673;48.980;8.138;2023-03-25T09:39:41;10.00;99.90
33994;DHT22;20673;48.980;8.138;2023-03-25T09:47:24;11.30;99.90
33994;DHT22;20673;48.980;8.138;2023-03-25T09:49:53;11.40;99.90
33994;DHT22;20673;48.980;8.138;2023-03-25T09:52:23;11.50;99.90
33994;DHT22;20673;48.980;8.138;2023-03-25T09:54:48;12.00;99.90
33994;DHT22;20673;48.980;8.138;2023-03-25T09:57:15;12.30;99.90
33994;DHT22;20673;48.980;8.138;2023-03-25T09:59:42;12.10;99.90
33994;DHT22;20673;48.980;8.138;2023-03-25T10:03:10;12.10;99.90
33994;DHT22;20673;48.980;8.138;2023-03-25T10:10:09;11.80;99.90
33994;DHT22;20673;48.980;8.138;2023-03-25T10:12:36;11.50;99.90
33994;DHT22;20673;48.980;8.138;2023-03-25T10:15:09;11.30;99.90
33994;DHT22;20673;48.980;8.138;2023-03-25T10:17:35;11.30;99.90
33994;DHT22;20673;48.980;8.138;2023-03-25T10:25:27;11.90;99.90
33994;DHT22;20673;48.980;8.138;2023-03-25T10:27:54;12.10;99.90
33994;DHT22;20673;48.980;8.138;2023-03-25T10:30:21;12.20;99.90
33994;DHT22;20673;48.980;8.138;2023-03-25T10:32:49;12.10;99.90
33994;DHT22;20673;48.980;8.138;2023-03-25T10:35:19;12.00;99.90
33994;DHT22;20673;48.980;8.138;2023-03-25T10:37:45;11.80;99.90
33994;DHT22;20673;48.980;8.138;2023-03-25T10:43:06;11.70;99.90
33994;DHT22;20673;48.980;8.138;2023-03-25T10:45:12;12.00;99.90
33994;DHT22;20673;48.980;8.138;2023-03-25T10:47:38;12.10;99.90
33994;DHT22;20673;48.980;8.138;2023-03-25T10:50:05;12.00;99.90
33994;DHT22;20673;48.980;8.138;2023-03-25T10:52:31;11.90;99.90
33994;DHT22;20673;48.980;8.138;2023-03-25T10:54:57;11.70;99.90
33994;DHT22;20673;48.980;8.138;2023-03-25T10:57:24;11.50;99.90
33994;DHT22;20673;48.980;8.138;2023-03-25T11:00:05;11.50;99.90
33994;DHT22;20673;48.980;8.138;2023-03-25T11:02:30;11.40;99.90
33994;DHT22;20673;48.980;8.138;2023-03-25T11:04:59;11.50;99.90
33994;DHT22;20673;48.980;8.138;2023-03-25T11:07:31;11.50;99.90
33994;DHT22;20673;48.980;8.138;2023-03-25T11:12:36;11.50;99.90
33994;DHT22;20673;48.980;8.138;2023-03-25T11:15:01;11.90;99.90
33994;DHT22;20673;48.980;8.138;2023-03-25T11:17:27;12.40;99.90
33994;DHT22;20673;48.980;8.138;2023-03-25T11:19:59;12.90;99.90
33994;DHT22;20673;48.980;8.138;2023-03-25T11:22:29;12.80;99.90
33994;DHT22;20673;48.980;8.138;2023-03-25T11:25:00;12.60;99.90
33994;DHT22;20673;48.980;8.138;2023-03-25T11:27:24;12.90;99.90
33994;DHT22;20673;48.980;8.138;2023-03-25T11:29:54;13.40;99.90
33994;DHT22;20673;48.980;8.138;2023-03-25T11:32:34;13.70;99.90
33994;DHT22;20673;48.980;8.138;2023-03-25T11:35:01;13.90;99.90
33994;DHT22;20673;48.980;8.138;2023-03-25T11:37:28;13.60;99.90
33994;DHT22;20673;48.980;8.138;2023-03-25T11:40:00;13.50;99.90
33994;DHT22;20673;48.980;8.138;2023-03-25T11:42:28;13.20;99.90
33994;DHT22;20673;48.980;8.138;2023-03-25T11:44:56;13.40;99.90
33994;DHT22;20673;48.980;8.138;2023-03-25T11:47:37;13.30;99.90
33994;DHT22;20673;48.980;8.138;2023-03-25T11:50:04;13.10;99.90
33994;DHT22;20673;48.980;8.138;2023-03-25T11:52:34;13.10;99.90
33994;DHT22;20673;48.980;8.138;2023-03-25T11:54:58;13.30;99.90
33994;DHT22;20673;48.980;8.138;2023-03-25T11:57:25;13.60;99.90
33994;DHT22;20673;48.980;8.138;2023-03-25T12:00:02;13.60;99.90
33994;DHT22;20673;48.980;8.138;2023-03-25T12:02:37;14.00;99.90
33994;DHT22;20673;48.980;8.138;2023-03-25T12:05:10;14.30;99.90
33994;DHT22;20673;48.980;8.138;2023-03-25T12:07:41;14.20;99.90
33994;DHT22;20673;48.980;8.138;2023-03-25T12:10:11;14.20;99.90
33994;DHT22;20673;48.980;8.138;2023-03-25T12:15:18;14.20;99.90
33994;DHT22;20673;48.980;8.138;2023-03-25T12:30:48;15.30;99.90
33994;DHT22;20673;48.980;8.138;2023-03-25T12:51:33;15.10;99.90
33994;DHT22;20673;48.980;8.138;2023-03-25T13:06:48;15.40;99.90
33994;DHT22;20673;48.980;8.138;2023-03-25T13:09:17;15.10;99.90
33994;DHT22;20673;48.980;8.138;2023-03-25T13:11:50;15.10;99.90
33994;DHT22;20673;48.980;8.138;2023-03-25T13:14:26;15.20;99.90
33994;DHT22;20673;48.980;8.138;2023-03-25T13:16:52;15.50;99.90
33994;DHT22;20673;48.980;8.138;2023-03-25T13:19:19;15.10;99.90
33994;DHT22;20673;48.980;8.138;2023-03-25T13:21:52;14.80;99.90
33994;DHT22;20673;48.980;8.138;2023-03-25T13:24:20;14.50;99.90
33994;DHT22;20673;48.980;8.138;2023-03-25T13:26:47;14.30;99.90
33994;DHT22;20673;48.980;8.138;2023-03-25T13:29:30;14.40;99.90
33994;DHT22;20673;48.980;8.138;2023-03-25T13:31:59;14.50;99.90
33994;DHT22;20673;48.980;8.138;2023-03-25T13:34:27;14.70;99.90
33994;DHT22;20673;48.980;8.138;2023-03-25T13:39:51;15.00;99.90
33994;DHT22;20673;48.980;8.138;2023-03-25T13:42:04;14.90;99.90
33994;DHT22;20673;48.980;8.138;2023-03-25T13:44:31;15.00;99.90
33994;DHT22;20673;48.980;8.138;2023-03-25T13:47:05;14.90;99.90
33994;DHT22;20673;48.980;8.138;2023-03-25T13:49:29;14.60;99.90
33994;DHT22;20673;48.980;8.138;2023-03-25T13:51:55;14.00;99.90
33994;DHT22;20673;48.980;8.138;2023-03-25T13:54:32;14.40;99.90
33994;DHT22;20673;48.980;8.138;2023-03-25T14:02:17;14.70;99.90
33994;DHT22;20673;48.980;8.138;2023-03-25T14:07:31;14.90;99.90
33994;DHT22;20673;48.980;8.138;2023-03-25T14:12:48;15.50;99.90
33994;DHT22;20673;48.980;8.138;2023-03-25T14:15:18;15.60;99.90
33994;DHT22;20673;48.980;8.138;2023-03-25T14:17:40;15.40;99.90
33994;DHT22;20673;48.980;8.138;2023-03-25T14:20:07;15.40;99.90
33994;DHT22;20673;48.980;8.138;2023-03-25T14:22:35;15.40;99.90
33994;DHT22;20673;48.980;8.138;2023-03-25T14:25:04;15.50;99.90
33994;DHT22;20673;48.980;8.138;2023-03-25T14:27:34;15.80;99.90
33994;DHT22;20673;48.980;8.138;2023-03-25T14:32:36;16.40;99.90
33994;DHT22;20673;48.980;8.138;2023-03-25T14:37:46;16.40;99.90
33994;DHT22;20673;48.980;8.138;2023-03-25T14:42:56;16.20;99.90
33994;DHT22;20673;48.980;8.138;2023-03-25T14:47:57;16.40;99.90
33994;DHT22;20673;48.980;8.138;2023-03-25T14:52:54;16.70;99.90
33994;DHT22;20673;48.980;8.138;2023-03-25T14:55:28;16.60;99.90
33994;DHT22;20673;48.980;8.138;2023-03-25T14:58:02;16.10;99.90
33994;DHT22;20673;48.980;8.138;2023-03-25T15:00:28;16.30;99.90
33994;DHT22;20673;48.980;8.138;2023-03-25T15:03:12;16.10;99.90
33994;DHT22;20673;48.980;8.138;2023-03-25T15:05:40;16.00;99.90
33994;DHT22;20673;48.980;8.138;2023-03-25T15:08:14;15.80;99.90
33994;DHT22;20673;48.980;8.138;2023-03-25T15:10:42;15.70;99.90
33994;DHT22;20673;48.980;8.138;2023-03-25T15:13:10;15.90;99.90
33994;DHT22;20673;48.980;8.138;2023-03-25T15:26:32;16.30;99.90
33994;DHT22;20673;48.980;8.138;2023-03-25T15:34:16;16.30;99.90
33994;DHT22;20673;48.980;8.138;2023-03-25T15:41:53;16.00;99.90
33994;DHT22;20673;48.980;8.138;2023-03-25T15:55:01;16.60;99.90
33994;DHT22;20673;48.980;8.138;2023-03-25T16:00:13;16.10;99.90
33994;DHT22;20673;48.980;8.138;2023-03-25T16:02:44;16.00;99.90
33994;DHT22;20673;48.980;8.138;2023-03-25T16:05:11;16.00;99.90
33994;DHT22;20673;48.980;8.138;2023-03-25T16:07:38;16.10;99.90
33994;DHT22;20673;48.980;8.138;2023-03-25T16:10:16;16.10;99.90
33994;DHT22;20673;48.980;8.138;2023-03-25T16:12:48;16.10;99.90
33994;DHT22;20673;48.980;8.138;2023-03-25T16:15:20;15.70;99.90
33994;DHT22;20673;48.980;8.138;2023-03-25T16:17:44;15.80;99.90
33994;DHT22;20673;48.980;8.138;2023-03-25T16:20:14;15.90;99.90
33994;DHT22;20673;48.980;8.138;2023-03-25T16:22:42;16.00;99.90
33994;DHT22;20673;48.980;8.138;2023-03-25T16:25:13;15.70;99.90
33994;DHT22;20673;48.980;8.138;2023-03-25T16:27:45;15.40;99.90
33994;DHT22;20673;48.980;8.138;2023-03-25T16:30:21;15.20;99.90
33994;DHT22;20673;48.980;8.138;2023-03-25T16:32:47;15.20;99.90
33994;DHT22;20673;48.980;8.138;2023-03-25T16:35:18;14.70;99.90
33994;DHT22;20673;48.980;8.138;2023-03-25T16:37:43;14.40;99.90
33994;DHT22;20673;48.980;8.138;2023-03-25T16:40:11;14.30;99.90
33994;DHT22;20673;48.980;8.138;2023-03-25T16:42:36;14.40;99.90
33994;DHT22;20673;48.980;8.138;2023-03-25T16:45:03;14.40;99.90
33994;DHT22;20673;48.980;8.138;2023-03-25T16:47:29;14.20;99.90
33994;DHT22;20673;48.980;8.138;2023-03-25T16:49:57;14.10;99.90
33994;DHT22;20673;48.980;8.138;2023-03-25T16:52:25;14.00;99.90
33994;DHT22;20673;48.980;8.138;2023-03-25T16:57:20;13.90;99.90
33994;DHT22;20673;48.980;8.138;2023-03-25T16:59:46;13.90;99.90
33994;DHT22;20673;48.980;8.138;2023-03-25T17:02:27;13.90;99.90
33994;DHT22;20673;48.980;8.138;2023-03-25T17:04:53;13.80;99.90
33994;DHT22;20673;48.980;8.138;2023-03-25T17:07:23;13.80;99.90
33994;DHT22;20673;48.980;8.138;2023-03-25T17:09:58;13.70;99.90
33994;DHT22;20673;48.980;8.138;2023-03-25T17:12:22;13.50;99.90
33994;DHT22;20673;48.980;8.138;2023-03-25T17:14:48;13.50;99.90
33994;DHT22;20673;48.980;8.138;2023-03-25T17:19:49;13.30;99.90
33994;DHT22;20673;48.980;8.138;2023-03-25T17:22:19;13.20;99.90
33994;DHT22;20673;48.980;8.138;2023-03-25T17:24:52;13.10;99.90
33994;DHT22;20673;48.980;8.138;2023-03-25T17:29:52;13.00;99.90
33994;DHT22;20673;48.980;8.138;2023-03-25T17:32:16;12.80;99.90
33994;DHT22;20673;48.980;8.138;2023-03-25T17:34:42;12.80;99.90
33994;DHT22;20673;48.980;8.138;2023-03-25T17:37:12;12.70;99.90
33994;DHT22;20673;48.980;8.138;2023-03-25T17:39:38;12.70;99.90
33994;DHT22;20673;48.980;8.138;2023-03-25T17:42:12;12.60;99.90
33994;DHT22;20673;48.980;8.138;2023-03-25T17:44:33;12.60;99.90
33994;DHT22;20673;48.980;8.138;2023-03-25T17:47:00;12.60;99.90
33994;DHT22;20673;48.980;8.138;2023-03-25T17:49:26;12.50;99.90
33994;DHT22;20673;48.980;8.138;2023-03-25T17:51:51;12.50;99.90
33994;DHT22;20673;48.980;8.138;2023-03-25T17:54:17;12.50;99.90
33994;DHT22;20673;48.980;8.138;2023-03-25T17:56:45;12.40;99.90
33994;DHT22;20673;48.980;8.138;2023-03-25T17:59:18;12.40;99.90
33994;DHT22;20673;48.980;8.138;2023-03-25T18:01:44;12.30;99.90
33994;DHT22;20673;48.980;8.138;2023-03-25T18:04:12;12.30;99.90
33994;DHT22;20673;48.980;8.138;2023-03-25T18:06:38;12.20;99.90
33994;DHT22;20673;48.980;8.138;2023-03-25T18:09:08;12.10;99.90
33994;DHT22;20673;48.980;8.138;2023-03-25T18:11:31;12.10;99.90
33994;DHT22;20673;48.980;8.138;2023-03-25T18:13:57;12.00;99.90
33994;DHT22;20673;48.980;8.138;2023-03-25T18:16:22;11.90;99.90
33994;DHT22;20673;48.980;8.138;2023-03-25T18:18:50;11.90;99.90
33994;DHT22;20673;48.980;8.138;2023-03-25T18:21:16;11.90;99.90
33994;DHT22;20673;48.980;8.138;2023-03-25T18:23:42;11.80;99.90
33994;DHT22;20673;48.980;8.138;2023-03-25T18:26:13;11.80;99.90
33994;DHT22;20673;48.980;8.138;2023-03-25T18:28:39;11.80;99.90
33994;DHT22;20673;48.980;8.138;2023-03-25T18:31:08;11.80;99.90
33994;DHT22;20673;48.980;8.138;2023-03-25T18:33:35;11.70;99.90
33994;DHT22;20673;48.980;8.138;2023-03-25T18:36:01;11.70;99.90